Time;durP1;ratioP1;P1;durP2;ratioP2;P2;SDS_P1;SDS_P2;PMS_P1;PMS_P2;Temp;Humidity;BMP_temperature;BMP_pressure;BME280_temperature;BME280_humidity;BME280_pressure;Samples;Min_cycle;Max_cycle;Signal;HPM_P1;HPM_P2
2022/01/10 00:00:00;;;;;;;13.87;5.70;;;3.20;99.90;;;;;;5072942;28;20027;-86
2022/01/10 00:02:26;;;;;;;16.30;5.20;;;3.10;99.90;;;;;;5079836;28;20052;-86
2022/01/10 00:04:52;;;;;;;18.87;5.50;;;3.10;99.90;;;;;;5113371;28;20046;-86
2022/01/10 00:07:18;;;;;;;16.03;5.70;;;3.10;99.90;;;;;;5082633;28;20054;-86
2022/01/10 00:09:43;;;;;;;16.00;5.00;;;3.10;99.90;;;;;;5080221;28;20107;-86
2022/01/10 00:12:11;;;;;;;13.97;5.77;;;3.20;99.90;;;;;;5048793;28;20053;-84
2022/01/10 00:14:37;;;;;;;16.90;5.07;;;3.10;99.90;;;;;;5093465;27;20049;-85
2022/01/10 00:17:04;;;;;;;16.23;5.57;;;3.20;99.90;;;;;;5075604;27;20863;-85
2022/01/10 00:19:30;;;;;;;13.70;4.93;;;3.10;99.90;;;;;;5082626;28;20130;-85
2022/01/10 00:21:56;;;;;;;14.20;4.67;;;3.10;99.90;;;;;;5078277;27;20043;-85
2022/01/10 00:24:22;;;;;;;17.53;5.67;;;3.10;99.90;;;;;;5077185;27;20074;-85
2022/01/10 00:26:48;;;;;;;15.23;5.83;;;3.10;99.90;;;;;;5086136;27;20046;-85
2022/01/10 00:29:14;;;;;;;16.43;5.77;;;3.10;99.90;;;;;;5075200;27;20047;-85
2022/01/10 00:31:40;;;;;;;14.80;5.50;;;3.00;99.90;;;;;;5081326;28;20041;-84
2022/01/10 00:34:06;;;;;;;14.20;5.03;;;3.00;99.90;;;;;;5079723;27;20062;-85
2022/01/10 00:36:32;;;;;;;10.27;4.47;;;3.00;99.90;;;;;;5075893;27;20031;-86
2022/01/10 00:38:58;;;;;;;11.87;4.23;;;2.90;99.90;;;;;;5092993;28;20094;-85
2022/01/10 00:41:23;;;;;;;11.60;4.60;;;2.90;99.90;;;;;;5071537;28;20138;-85
2022/01/10 00:43:51;;;;;;;16.40;5.70;;;2.90;99.90;;;;;;5066940;28;20044;-85
2022/01/10 00:46:17;;;;;;;12.53;4.20;;;2.80;99.90;;;;;;5080611;28;20109;-85
2022/01/10 00:48:43;;;;;;;19.27;5.97;;;2.70;99.90;;;;;;5075067;28;20040;-86
2022/01/10 00:51:09;;;;;;;15.77;5.23;;;2.70;99.90;;;;;;5079669;27;20147;-85
2022/01/10 00:53:35;;;;;;;17.47;5.37;;;2.70;99.90;;;;;;5088987;27;20051;-86
2022/01/10 00:56:00;;;;;;;13.70;5.07;;;2.70;99.90;;;;;;5085843;27;20050;-86
2022/01/10 00:58:26;;;;;;;15.63;4.90;;;2.70;99.90;;;;;;5084500;27;20047;-86
2022/01/10 01:00:52;;;;;;;11.93;4.40;;;2.70;99.90;;;;;;5088586;27;20080;-87
2022/01/10 01:03:18;;;;;;;14.37;5.13;;;2.50;99.90;;;;;;5057369;28;20051;-86
2022/01/10 01:05:45;;;;;;;9.93;4.23;;;2.60;99.90;;;;;;5075642;28;20032;-86
2022/01/10 01:08:12;;;;;;;11.33;4.20;;;2.60;99.90;;;;;;5072006;28;20067;-86
2022/01/10 01:24:06;;;;;;;10.03;4.83;;;2.30;99.90;;;;;;5108428;27;20043;-86
2022/01/10 01:26:46;;;;;;;8.20;4.47;;;2.30;99.90;;;;;;5086577;27;20050;-86
2022/01/10 01:29:18;;;;;;;10.23;4.30;;;2.20;99.90;;;;;;5081974;28;20510;-85
2022/01/10 01:31:45;;;;;;;11.80;4.10;;;2.20;99.90;;;;;;5096821;27;20054;-86
2022/01/10 01:34:11;;;;;;;8.90;4.20;;;2.10;99.90;;;;;;5075206;28;20051;-86
2022/01/10 01:36:38;;;;;;;12.60;4.63;;;2.10;99.90;;;;;;5058745;28;20110;-85
2022/01/10 01:39:16;;;;;;;13.23;4.60;;;2.10;99.90;;;;;;5074489;27;20062;-84
2022/01/10 01:41:43;;;;;;;8.67;4.10;;;2.10;99.90;;;;;;5092639;27;20055;-86
2022/01/10 01:44:09;;;;;;;9.63;4.70;;;2.10;99.90;;;;;;5057467;27;20083;-85
2022/01/10 01:46:36;;;;;;;12.27;5.27;;;2.10;99.90;;;;;;5094152;28;20609;-86
2022/01/10 01:49:04;;;;;;;11.67;5.03;;;2.00;99.90;;;;;;5068553;27;20126;-86
2022/01/10 01:51:30;;;;;;;11.50;5.03;;;2.00;99.90;;;;;;5097810;27;20079;-85
2022/01/10 01:53:56;;;;;;;13.83;5.63;;;2.00;99.90;;;;;;5080790;28;20194;-86
2022/01/10 01:56:22;;;;;;;11.87;4.70;;;2.00;99.90;;;;;;5114593;27;20058;-86
2022/01/10 01:58:52;;;;;;;12.07;5.30;;;1.90;99.90;;;;;;5099922;27;20043;-85
2022/01/10 02:01:18;;;;;;;12.50;4.67;;;1.90;99.90;;;;;;5107812;27;20091;-86
2022/01/10 02:03:46;;;;;;;15.37;5.30;;;1.90;99.90;;;;;;5081908;27;20054;-86
2022/01/10 02:06:12;;;;;;;13.90;5.70;;;1.90;99.90;;;;;;5083764;27;20054;-85
2022/01/10 02:08:39;;;;;;;10.47;4.70;;;1.90;99.90;;;;;;5089342;28;20116;-85
2022/01/10 02:11:10;;;;;;;12.17;4.50;;;1.70;99.90;;;;;;5089125;28;20039;-86
2022/01/10 02:13:37;;;;;;;10.07;5.25;;;1.80;99.90;;;;;;5093931;28;20104;-87
2022/01/10 02:16:06;;;;;;;10.50;5.10;;;1.80;99.90;;;;;;5090267;27;20050;-86
2022/01/10 02:18:32;;;;;;;14.50;6.03;;;1.70;99.90;;;;;;5096644;27;20053;-85
2022/01/10 02:21:00;;;;;;;9.97;4.93;;;1.80;99.90;;;;;;5088512;28;20062;-85
2022/01/10 02:23:30;;;;;;;15.87;5.70;;;1.70;99.90;;;;;;5080742;28;20047;-86
2022/01/10 02:25:57;;;;;;;10.83;4.30;;;1.60;99.90;;;;;;5108779;28;20540;-85
2022/01/10 02:28:23;;;;;;;12.37;4.70;;;1.60;99.90;;;;;;5075406;27;20509;-85
2022/01/10 02:30:56;;;;;;;7.40;4.63;;;1.50;99.90;;;;;;5101113;27;20070;-86
2022/01/10 02:33:23;;;;;;;12.07;4.60;;;1.60;99.90;;;;;;5086854;28;20054;-87
2022/01/10 02:36:05;;;;;;;12.47;5.17;;;1.50;99.90;;;;;;5092651;28;20040;-85
2022/01/10 02:38:31;;;;;;;8.95;4.68;;;1.50;99.90;;;;;;5082303;27;20058;-85
2022/01/10 02:40:58;;;;;;;14.13;5.00;;;1.40;99.90;;;;;;5082580;27;20043;-85
2022/01/10 02:43:24;;;;;;;8.67;4.40;;;1.50;99.90;;;;;;5079663;28;20563;-85
2022/01/10 02:45:50;;;;;;;9.10;4.53;;;1.50;99.90;;;;;;5061458;28;20035;-85
2022/01/10 02:48:16;;;;;;;12.20;4.70;;;1.50;99.90;;;;;;5063976;28;20559;-85
2022/01/10 02:50:42;;;;;;;16.63;5.80;;;1.50;99.90;;;;;;5087000;28;20086;-85
2022/01/10 02:53:08;;;;;;;12.47;5.70;;;1.50;99.90;;;;;;5079817;28;20040;-85
2022/01/10 02:55:34;;;;;;;13.07;5.83;;;1.50;99.90;;;;;;5072636;28;20063;-85
2022/01/10 02:57:59;;;;;;;15.53;5.93;;;1.40;99.90;;;;;;5055208;28;20094;-85
2022/01/10 03:00:26;;;;;;;10.47;6.30;;;1.50;99.90;;;;;;5060440;28;20043;-85
2022/01/10 03:02:54;;;;;;;16.60;6.50;;;1.40;99.90;;;;;;5103781;28;20621;-86
2022/01/10 03:05:22;;;;;;;15.13;6.30;;;1.40;99.90;;;;;;5068459;28;20039;-86
2022/01/10 03:07:51;;;;;;;13.40;6.30;;;1.40;99.90;;;;;;5079398;28;20050;-86
2022/01/10 03:10:16;;;;;;;16.23;6.20;;;1.40;99.90;;;;;;5097349;28;20050;-88
2022/01/10 03:12:43;;;;;;;16.87;7.07;;;1.40;99.90;;;;;;5094863;28;20693;-85
2022/01/10 03:15:10;;;;;;;18.03;6.50;;;1.40;99.90;;;;;;5096133;28;20130;-85
2022/01/10 03:17:38;;;;;;;12.90;6.97;;;1.40;99.90;;;;;;5094915;28;20581;-86
2022/01/10 03:20:06;;;;;;;13.03;6.67;;;1.40;99.90;;;;;;5087184;28;20044;-86
2022/01/10 03:22:32;;;;;;;21.13;7.50;;;1.40;99.90;;;;;;5094228;28;20036;-87
2022/01/10 03:24:58;;;;;;;15.60;7.20;;;1.40;99.90;;;;;;5095449;28;20050;-86
2022/01/10 03:27:25;;;;;;;17.43;6.23;;;1.30;99.90;;;;;;5089260;28;20051;-87
2022/01/10 03:29:51;;;;;;;16.27;7.30;;;1.30;99.90;;;;;;5102371;28;20040;-86
2022/01/10 03:32:17;;;;;;;13.97;6.80;;;1.30;99.90;;;;;;5057612;28;20032;-86
2022/01/10 03:34:43;;;;;;;15.50;8.40;;;1.30;99.90;;;;;;5114072;28;20050;-86
2022/01/10 03:37:09;;;;;;;13.70;7.07;;;1.30;99.90;;;;;;5070383;28;20047;-87
2022/01/10 03:39:35;;;;;;;13.97;7.43;;;1.30;99.90;;;;;;5114017;28;20044;-86
2022/01/10 03:42:02;;;;;;;14.63;6.70;;;1.30;99.90;;;;;;5078093;28;20055;-86
2022/01/10 03:44:28;;;;;;;14.57;6.93;;;1.30;99.90;;;;;;5088393;28;20052;-85
2022/01/10 03:46:56;;;;;;;15.40;6.90;;;1.10;99.90;;;;;;5071449;28;20052;-86
2022/01/10 03:49:22;;;;;;;17.00;7.77;;;1.20;99.90;;;;;;5075443;28;20399;-86
2022/01/10 03:51:48;;;;;;;21.40;8.30;;;1.20;99.90;;;;;;5080119;28;20058;-85
2022/01/10 03:54:13;;;;;;;22.03;7.83;;;1.20;99.90;;;;;;5063171;28;20637;-86
2022/01/10 03:56:39;;;;;;;16.30;7.50;;;1.20;99.90;;;;;;5057479;28;20036;-86
2022/01/10 03:59:05;;;;;;;22.47;8.70;;;1.10;99.90;;;;;;5078775;28;20036;-86
2022/01/10 04:01:31;;;;;;;17.17;7.90;;;1.10;99.90;;;;;;5058225;28;20088;-86
2022/01/10 04:03:57;;;;;;;17.17;8.17;;;1.10;99.90;;;;;;5094325;28;20051;-86
2022/01/10 04:06:23;;;;;;;18.17;8.77;;;1.10;99.90;;;;;;5063537;28;20032;-86
2022/01/10 04:08:49;;;;;;;18.00;8.53;;;1.10;99.90;;;;;;5070659;28;20063;-86
2022/01/10 04:11:15;;;;;;;18.97;8.60;;;1.00;99.90;;;;;;5087425;28;20050;-85
2022/01/10 04:13:40;;;;;;;22.40;9.83;;;1.00;99.90;;;;;;5071816;28;20103;-85
2022/01/10 04:16:07;;;;;;;22.90;9.73;;;1.00;99.90;;;;;;5093867;28;20379;-86
2022/01/10 04:18:33;;;;;;;20.67;9.13;;;1.00;99.90;;;;;;5073761;28;20494;-86
2022/01/10 04:20:59;;;;;;;18.67;9.13;;;1.00;99.90;;;;;;5099566;28;20089;-85
2022/01/10 04:23:25;;;;;;;21.97;9.77;;;1.00;99.90;;;;;;5077993;28;20044;-83
2022/01/10 04:25:51;;;;;;;18.27;9.77;;;0.90;99.90;;;;;;5073458;28;20056;-85
2022/01/10 04:28:17;;;;;;;24.20;9.33;;;0.90;99.90;;;;;;5075463;28;20602;-85
2022/01/10 04:30:43;;;;;;;19.70;9.90;;;1.00;99.90;;;;;;5106977;28;20044;-85
2022/01/10 04:33:10;;;;;;;19.67;9.53;;;0.90;99.90;;;;;;5099016;28;20040;-86
2022/01/10 04:35:36;;;;;;;17.97;9.10;;;1.00;99.90;;;;;;5099373;28;20055;-86
2022/01/10 04:38:02;;;;;;;19.63;9.57;;;1.00;99.90;;;;;;5065650;28;20040;-85
2022/01/10 04:40:28;;;;;;;22.00;9.87;;;1.00;99.90;;;;;;5077407;28;20047;-85
2022/01/10 04:42:54;;;;;;;21.20;9.67;;;0.90;99.90;;;;;;5074215;28;20102;-85
2022/01/10 04:45:20;;;;;;;16.10;7.70;;;1.00;99.90;;;;;;5079404;28;20067;-85
2022/01/10 04:47:46;;;;;;;19.23;8.67;;;0.90;99.90;;;;;;5116224;28;20032;-86
2022/01/10 04:52:38;;;;;;;18.97;9.90;;;0.90;99.90;;;;;;5115578;28;20103;-86
2022/01/10 04:55:05;;;;;;;20.50;8.73;;;0.90;99.90;;;;;;5082409;28;20079;-85
2022/01/10 04:57:30;;;;;;;20.13;8.77;;;0.80;99.90;;;;;;5071881;28;20044;-84
2022/01/10 04:59:56;;;;;;;23.23;9.20;;;0.80;99.90;;;;;;5084491;28;20313;-85
2022/01/10 05:02:22;;;;;;;22.53;10.93;;;0.80;99.90;;;;;;5094510;28;20040;-86
2022/01/10 05:04:48;;;;;;;17.20;10.83;;;0.80;99.90;;;;;;5065930;28;20040;-86
2022/01/10 05:07:14;;;;;;;21.93;11.00;;;0.80;99.90;;;;;;5074090;28;20055;-85
2022/01/10 05:09:39;;;;;;;20.50;10.93;;;0.80;99.90;;;;;;5047105;28;20083;-84
2022/01/10 05:12:06;;;;;;;19.83;9.87;;;0.80;99.90;;;;;;5071498;28;20054;-84
2022/01/10 05:14:33;;;;;;;23.17;10.80;;;0.80;99.90;;;;;;5075412;28;20063;-85
2022/01/10 05:16:59;;;;;;;19.30;10.00;;;0.80;99.90;;;;;;5080533;28;20075;-85
2022/01/10 05:19:25;;;;;;;22.53;10.80;;;0.80;99.90;;;;;;5096968;28;20043;-86
2022/01/10 05:21:51;;;;;;;26.23;10.77;;;0.80;99.90;;;;;;5092636;28;20395;-84
2022/01/10 05:24:17;;;;;;;18.93;10.23;;;0.80;99.90;;;;;;5083849;28;20040;-84
2022/01/10 05:26:42;;;;;;;25.63;12.00;;;0.80;99.90;;;;;;5082326;28;20118;-87
2022/01/10 05:29:08;;;;;;;23.67;12.27;;;0.80;99.90;;;;;;5066860;28;20048;-85
2022/01/10 05:31:34;;;;;;;25.83;11.63;;;0.80;99.90;;;;;;5049055;28;20111;-83
2022/01/10 05:34:01;;;;;;;24.10;12.97;;;0.80;99.90;;;;;;5051909;28;20858;-84
2022/01/10 05:36:27;;;;;;;20.57;11.67;;;0.80;99.90;;;;;;5068792;28;20073;-79
2022/01/10 05:38:53;;;;;;;23.47;11.27;;;0.80;99.90;;;;;;5071518;28;20044;-84
2022/01/10 05:41:22;;;;;;;24.20;12.40;;;0.80;99.90;;;;;;5060667;28;20071;-79
2022/01/10 05:43:47;;;;;;;20.27;11.07;;;0.80;99.90;;;;;;5091116;27;20046;-80
2022/01/10 05:46:18;;;;;;;19.93;10.73;;;0.70;99.90;;;;;;5082641;27;20368;-78
2022/01/10 05:48:47;;;;;;;21.73;11.00;;;0.70;99.90;;;;;;5105768;27;20100;-84
2022/01/10 05:51:14;;;;;;;22.37;12.37;;;0.70;99.90;;;;;;5096321;27;20046;-84
2022/01/10 05:53:39;;;;;;;24.57;12.63;;;0.70;99.90;;;;;;5115376;27;20039;-79
2022/01/10 05:56:05;;;;;;;23.80;12.83;;;0.70;99.90;;;;;;5065192;27;20332;-78
2022/01/10 05:58:31;;;;;;;24.33;12.90;;;0.70;99.90;;;;;;5089933;28;20081;-78
2022/01/10 06:00:57;;;;;;;22.67;12.00;;;0.70;99.90;;;;;;5065596;27;20038;-82
2022/01/10 06:03:23;;;;;;;22.23;11.50;;;0.60;99.90;;;;;;5077981;27;20546;-82
2022/01/10 06:05:48;;;;;;;21.93;11.70;;;0.60;99.90;;;;;;5100409;27;20514;-82
2022/01/10 06:08:14;;;;;;;19.87;11.23;;;0.60;99.90;;;;;;5066934;27;20055;-81
2022/01/10 06:10:40;;;;;;;20.37;12.17;;;0.70;99.90;;;;;;5089535;28;20491;-81
2022/01/10 06:13:06;;;;;;;22.43;11.33;;;0.70;99.90;;;;;;5081570;27;20074;-82
2022/01/10 06:15:32;;;;;;;22.77;12.60;;;0.70;99.90;;;;;;5063446;28;20131;-83
2022/01/10 06:17:58;;;;;;;19.23;11.57;;;0.70;99.90;;;;;;5094077;27;20039;-83
2022/01/10 06:20:24;;;;;;;21.40;11.83;;;0.70;99.90;;;;;;5080304;28;20051;-81
2022/01/10 06:22:50;;;;;;;21.23;12.20;;;0.60;99.90;;;;;;5112400;27;20054;-83
2022/01/10 06:25:22;;;;;;;21.30;11.07;;;0.70;99.90;;;;;;5095428;27;20043;-83
2022/01/10 06:27:48;;;;;;;20.60;11.60;;;0.60;99.90;;;;;;5094274;27;20380;-83
2022/01/10 06:30:13;;;;;;;26.70;13.33;;;0.60;99.90;;;;;;5079320;28;20056;-83
2022/01/10 06:32:39;;;;;;;22.07;13.03;;;0.60;99.90;;;;;;5062923;28;20051;-83
2022/01/10 06:35:06;;;;;;;26.30;13.63;;;0.60;99.90;;;;;;5080100;28;20058;-83
2022/01/10 06:37:32;;;;;;;26.30;14.50;;;0.60;99.90;;;;;;5080485;27;20067;-84
2022/01/10 06:39:57;;;;;;;23.77;14.23;;;0.60;99.90;;;;;;5088997;27;20075;-84
2022/01/10 06:42:23;;;;;;;26.87;12.67;;;0.70;99.90;;;;;;5095148;27;20044;-85
2022/01/10 06:44:49;;;;;;;27.27;14.83;;;0.70;99.90;;;;;;5094704;27;20035;-83
2022/01/10 06:47:15;;;;;;;22.33;12.30;;;0.60;99.90;;;;;;5065250;28;20111;-83
2022/01/10 06:49:42;;;;;;;19.53;12.07;;;0.60;99.90;;;;;;5043866;28;20103;-83
2022/01/10 06:52:08;;;;;;;30.90;15.47;;;0.50;99.90;;;;;;5081490;27;20047;-83
2022/01/10 06:54:34;;;;;;;24.43;12.73;;;0.50;99.90;;;;;;5059735;27;20498;-83
2022/01/10 06:56:59;;;;;;;24.83;12.73;;;0.50;99.90;;;;;;5066303;27;20039;-83
2022/01/10 06:59:26;;;;;;;29.33;14.23;;;0.50;99.90;;;;;;5092642;27;20043;-81
2022/01/10 07:01:53;;;;;;;24.50;14.27;;;0.50;99.90;;;;;;5082995;28;20108;-82
2022/01/10 07:04:20;;;;;;;29.50;16.03;;;0.50;99.90;;;;;;5079940;28;20296;-77
2022/01/10 07:06:45;;;;;;;26.63;15.87;;;0.60;99.90;;;;;;5078271;28;20081;-81
2022/01/10 07:09:11;;;;;;;26.77;15.23;;;0.50;99.90;;;;;;5065842;28;20292;-82
2022/01/10 07:11:37;;;;;;;32.97;14.17;;;0.60;99.90;;;;;;5059350;28;20047;-82
2022/01/10 07:14:03;;;;;;;26.60;16.37;;;0.60;99.90;;;;;;5077503;28;20054;-82
2022/01/10 07:16:29;;;;;;;30.40;15.47;;;0.50;99.90;;;;;;5090974;28;20126;-82
2022/01/10 07:18:55;;;;;;;25.43;14.67;;;0.50;99.90;;;;;;5110338;28;20067;-82
2022/01/10 07:21:21;;;;;;;29.30;14.57;;;0.50;99.90;;;;;;5063257;28;20042;-83
2022/01/10 07:23:48;;;;;;;27.60;14.10;;;0.60;99.90;;;;;;5074087;28;20051;-83
2022/01/10 07:26:14;;;;;;;32.47;15.07;;;0.50;99.90;;;;;;5075620;27;20046;-78
2022/01/10 07:28:40;;;;;;;29.73;15.27;;;0.50;99.90;;;;;;5112044;27;21096;-79
2022/01/10 07:31:06;;;;;;;27.73;16.10;;;0.50;99.90;;;;;;5079163;27;20288;-81
2022/01/10 07:33:32;;;;;;;33.37;16.13;;;0.50;99.90;;;;;;5062135;27;20096;-81
2022/01/10 07:35:58;;;;;;;35.03;19.43;;;0.50;99.90;;;;;;5102799;27;20605;-80
2022/01/10 07:38:23;;;;;;;58.77;24.70;;;0.60;99.90;;;;;;5069853;27;20280;-80
2022/01/10 07:40:50;;;;;;;32.67;17.60;;;0.60;99.90;;;;;;5095198;27;20046;-80
2022/01/10 07:43:16;;;;;;;32.87;16.10;;;0.60;99.90;;;;;;5067966;28;20052;-79
2022/01/10 07:45:41;;;;;;;32.70;17.37;;;0.70;99.90;;;;;;5095438;28;20306;-80
2022/01/10 07:48:08;;;;;;;29.07;17.37;;;0.60;99.90;;;;;;5058380;28;20347;-81
2022/01/10 07:50:34;;;;;;;30.30;16.07;;;0.60;99.90;;;;;;5092859;28;20416;-81
2022/01/10 07:53:00;;;;;;;36.57;17.83;;;0.60;99.90;;;;;;5087717;28;20312;-81
2022/01/10 07:55:25;;;;;;;35.50;16.97;;;0.60;99.90;;;;;;5066171;28;20044;-80
2022/01/10 07:57:51;;;;;;;29.30;16.63;;;0.60;99.90;;;;;;5072256;28;20083;-80
2022/01/10 08:00:17;;;;;;;34.20;16.90;;;0.60;99.90;;;;;;5067547;28;20430;-79
2022/01/10 08:02:43;;;;;;;31.93;17.60;;;0.60;99.90;;;;;;5068812;22;20509;-79
2022/01/10 08:05:09;;;;;;;33.47;16.30;;;0.60;99.90;;;;;;5018481;28;20052;-79
2022/01/10 08:07:35;;;;;;;31.47;15.87;;;0.60;99.90;;;;;;5013510;28;20049;-80
2022/01/10 08:10:11;;;;;;;59.20;32.33;;;0.50;99.90;;;;;;5011274;28;20350;-79
2022/01/10 08:12:40;;;;;;;41.27;22.13;;;0.60;99.90;;;;;;5028118;28;20300;-79
2022/01/10 08:15:06;;;;;;;30.97;17.83;;;0.50;99.90;;;;;;5005216;28;20107;-80
2022/01/10 08:17:32;;;;;;;32.77;16.53;;;0.50;99.90;;;;;;5010312;28;20284;-79
2022/01/10 08:19:57;;;;;;;33.20;17.73;;;0.60;99.90;;;;;;5011642;28;20288;-79
2022/01/10 08:22:23;;;;;;;28.33;16.67;;;0.60;99.90;;;;;;5012341;28;20068;-79
2022/01/10 08:24:50;;;;;;;34.87;18.57;;;0.50;99.90;;;;;;5008276;28;20042;-79
2022/01/10 08:27:16;;;;;;;28.13;15.90;;;0.60;99.90;;;;;;4997334;28;20056;-79
2022/01/10 08:29:42;;;;;;;35.20;16.87;;;0.60;99.90;;;;;;5006212;28;20320;-79
2022/01/10 08:32:08;;;;;;;30.97;16.30;;;0.60;99.90;;;;;;5006303;28;20330;-79
2022/01/10 08:34:34;;;;;;;27.63;16.37;;;0.60;99.90;;;;;;5015303;28;20046;-80
2022/01/10 08:37:00;;;;;;;33.17;17.67;;;0.70;99.90;;;;;;5011846;28;20284;-79
2022/01/10 08:39:26;;;;;;;29.67;16.77;;;0.70;99.90;;;;;;5016883;28;20037;-80
2022/01/10 08:41:51;;;;;;;28.33;16.53;;;0.70;99.90;;;;;;5008816;28;20116;-80
2022/01/10 08:44:17;;;;;;;32.40;17.60;;;0.80;99.90;;;;;;5023268;28;20059;-79
2022/01/10 08:46:44;;;;;;;40.97;22.00;;;0.80;99.90;;;;;;5006588;28;20496;-79
2022/01/10 08:49:12;;;;;;;42.03;23.73;;;0.90;99.90;;;;;;5018781;28;20041;-79
2022/01/10 08:51:39;;;;;;;39.77;19.20;;;0.90;99.90;;;;;;5015435;28;20311;-79
2022/01/10 08:54:05;;;;;;;37.87;18.70;;;1.00;99.90;;;;;;5000690;28;20045;-79
2022/01/10 08:56:32;;;;;;;29.53;17.83;;;1.00;99.90;;;;;;5014831;28;20332;-79
2022/01/10 08:58:58;;;;;;;33.90;19.23;;;1.00;99.90;;;;;;5023630;28;20038;-78
2022/01/10 09:01:24;;;;;;;32.57;18.40;;;1.00;99.90;;;;;;5013410;28;20292;-78
2022/01/10 09:03:50;;;;;;;38.70;23.53;;;1.10;99.90;;;;;;4995838;28;20311;-78
2022/01/10 09:06:16;;;;;;;42.13;23.23;;;1.10;99.90;;;;;;5013165;28;20128;-78
2022/01/10 09:08:43;;;;;;;41.43;22.57;;;1.10;99.90;;;;;;4997475;28;20042;-79
2022/01/10 09:11:10;;;;;;;36.63;19.93;;;1.20;99.90;;;;;;5012314;28;20053;-79
2022/01/10 09:13:36;;;;;;;32.67;20.30;;;1.20;99.90;;;;;;4997196;28;20339;-79
2022/01/10 09:16:02;;;;;;;32.43;20.17;;;1.20;99.90;;;;;;5001419;28;20065;-79
2022/01/10 09:18:29;;;;;;;29.17;19.13;;;1.30;99.90;;;;;;4997992;28;20286;-79
2022/01/10 09:20:55;;;;;;;32.07;19.10;;;1.30;99.90;;;;;;4997431;28;20289;-80
2022/01/10 09:23:22;;;;;;;35.07;20.20;;;1.40;99.90;;;;;;4997650;28;20038;-79
2022/01/10 09:25:49;;;;;;;37.13;19.13;;;1.50;99.90;;;;;;4978834;28;20041;-79
2022/01/10 09:28:16;;;;;;;36.43;22.77;;;1.60;99.90;;;;;;5006607;28;20587;-80
2022/01/10 09:30:42;;;;;;;75.97;39.03;;;1.60;99.90;;;;;;5013161;28;20045;-79
2022/01/10 09:33:08;;;;;;;41.00;22.03;;;1.60;99.90;;;;;;5006899;28;20104;-79
2022/01/10 09:35:34;;;;;;;34.67;21.47;;;1.70;99.90;;;;;;4990449;28;20053;-79
2022/01/10 09:38:00;;;;;;;42.47;21.57;;;1.70;99.90;;;;;;4997277;28;20038;-79
2022/01/10 09:40:26;;;;;;;34.67;21.13;;;1.80;99.90;;;;;;4994954;28;20536;-79
2022/01/10 09:42:51;;;;;;;41.93;22.37;;;1.80;99.90;;;;;;5012795;28;20116;-79
2022/01/10 09:45:18;;;;;;;36.67;22.17;;;1.90;99.90;;;;;;4978552;28;20046;-79
2022/01/10 09:47:44;;;;;;;36.57;21.87;;;1.90;99.90;;;;;;4995825;28;20041;-79
2022/01/10 09:50:11;;;;;;;31.23;20.77;;;1.90;99.90;;;;;;5012843;28;20119;-79
2022/01/10 09:52:39;;;;;;;35.20;22.07;;;2.00;99.90;;;;;;5012705;28;20038;-79
2022/01/10 09:55:05;;;;;;;33.73;21.60;;;2.10;99.90;;;;;;5012282;28;20808;-79
2022/01/10 09:57:31;;;;;;;37.73;22.30;;;2.10;99.90;;;;;;5012376;28;20067;-79
2022/01/10 09:59:57;;;;;;;32.90;20.80;;;2.20;99.90;;;;;;5008421;28;20117;-79
2022/01/10 10:02:30;;;;;;;35.33;21.27;;;2.20;99.90;;;;;;4991834;28;20137;-79
2022/01/10 10:04:56;;;;;;;38.57;23.10;;;2.30;99.90;;;;;;5005834;28;20115;-79
2022/01/10 10:07:24;;;;;;;41.33;23.50;;;2.30;99.90;;;;;;4996047;28;20049;-79
2022/01/10 10:09:50;;;;;;;40.53;24.83;;;2.30;99.90;;;;;;4995222;28;20050;-79
2022/01/10 10:12:15;;;;;;;41.40;22.90;;;2.40;99.90;;;;;;5000298;28;20122;-79
2022/01/10 10:14:45;;;;;;;39.37;23.83;;;2.40;99.90;;;;;;4997429;28;20129;-80
2022/01/10 10:17:17;;;;;;;39.43;23.70;;;2.50;99.90;;;;;;4996379;28;20037;-83
2022/01/10 10:19:43;;;;;;;;;;;2.60;99.90;;;;;;4995617;28;20313;-81
2022/01/10 10:22:08;;;;;;;45.67;25.53;;;2.70;99.90;;;;;;5011024;28;19924;-79
2022/01/10 10:24:34;;;;;;;41.30;25.17;;;2.70;99.90;;;;;;5011225;28;20116;-79
2022/01/10 10:27:00;;;;;;;39.73;23.57;;;2.80;99.90;;;;;;4978860;28;20050;-79
2022/01/10 10:29:26;;;;;;;43.13;22.53;;;2.80;99.90;;;;;;5004282;28;20045;-79
2022/01/10 10:31:56;;;;;;;45.80;24.60;;;2.80;99.90;;;;;;5008036;28;20038;-79
2022/01/10 10:34:27;;;;;;;37.47;23.07;;;2.90;99.90;;;;;;5002953;28;20125;-79
2022/01/10 10:37:06;;;;;;;40.87;23.30;;;2.90;99.90;;;;;;5008327;28;20049;-78
2022/01/10 10:39:36;;;;;;;42.43;23.03;;;2.90;99.90;;;;;;5007579;28;20042;-79
2022/01/10 10:42:05;;;;;;;35.63;23.07;;;2.90;99.90;;;;;;5010906;28;20475;-79
2022/01/10 10:44:32;;;;;;;45.67;25.23;;;3.00;99.90;;;;;;5009635;28;20445;-78
2022/01/10 10:46:59;;;;;;;43.53;25.23;;;3.00;99.90;;;;;;4978058;28;20351;-78
2022/01/10 10:49:31;;;;;;;49.87;26.97;;;3.10;99.90;;;;;;4991258;28;20040;-79
2022/01/10 10:52:00;;;;;;;46.53;26.33;;;3.10;99.90;;;;;;5011036;28;20788;-78
2022/01/10 10:54:31;;;;;;;50.73;27.17;;;3.20;99.90;;;;;;4992862;28;20038;-79
2022/01/10 10:56:58;;;;;;;46.50;24.92;;;3.20;99.90;;;;;;4972500;28;20034;-79
2022/01/10 10:59:29;;;;;;;41.23;23.73;;;3.20;99.90;;;;;;4995143;28;20160;-78
2022/01/10 11:01:55;;;;;;;38.90;23.67;;;3.30;99.90;;;;;;4979407;28;20117;-79
2022/01/10 11:04:21;;;;;;;45.53;26.40;;;3.40;99.90;;;;;;5006658;28;20046;-79
2022/01/10 11:06:47;;;;;;;42.30;23.63;;;3.40;99.90;;;;;;4993988;28;20121;-79
2022/01/10 11:09:14;;;;;;;36.53;23.87;;;3.50;99.90;;;;;;5006162;28;20033;-79
2022/01/10 11:11:41;;;;;;;42.07;25.13;;;3.50;99.90;;;;;;4994758;28;20042;-80
2022/01/10 11:14:10;;;;;;;37.53;23.93;;;3.60;99.90;;;;;;4994047;28;20033;-79
2022/01/10 11:16:38;;;;;;;41.10;23.93;;;3.60;99.90;;;;;;5007944;28;20061;-80
2022/01/10 11:19:16;;;;;;;42.40;24.87;;;3.60;99.90;;;;;;5002574;28;20048;-79
2022/01/10 11:21:46;;;;;;;40.37;25.00;;;3.80;99.90;;;;;;4989155;28;20049;-80
2022/01/10 11:24:32;;;;;;;42.20;23.60;;;3.80;99.90;;;;;;5002827;28;21222;-79
2022/01/10 11:26:57;;;;;;;48.33;26.37;;;3.90;99.90;;;;;;4993340;28;20038;-80
2022/01/10 11:29:29;;;;;;;46.43;26.23;;;3.90;99.90;;;;;;4992058;28;20038;-79
2022/01/10 11:31:54;;;;;;;44.38;25.35;;;3.90;99.90;;;;;;5000645;28;20513;-79
2022/01/10 11:34:20;;;;;;;45.43;25.53;;;4.00;99.90;;;;;;5006759;28;20030;-79
2022/01/10 11:36:47;;;;;;;46.73;24.80;;;4.10;99.90;;;;;;5008811;28;20065;-79
2022/01/10 11:39:13;;;;;;;41.13;23.07;;;4.10;99.90;;;;;;4991596;28;20041;-78
2022/01/10 11:41:39;;;;;;;39.27;22.90;;;4.10;99.90;;;;;;5005251;28;20103;-79
2022/01/10 11:44:13;;;;;;;47.87;24.30;;;4.10;99.90;;;;;;4992859;28;20100;-79
2022/01/10 11:46:51;;;;;;;39.20;22.73;;;4.20;99.90;;;;;;5008211;28;20038;-79
2022/01/10 11:49:18;;;;;;;37.57;22.93;;;4.20;99.90;;;;;;5007294;28;20053;-79
2022/01/10 11:51:50;;;;;;;44.03;23.87;;;4.20;99.90;;;;;;5003707;28;20041;-79
2022/01/10 11:54:35;;;;;;;42.05;23.83;;;4.30;99.90;;;;;;5007097;28;20050;-79
2022/01/10 11:57:11;;;;;;;43.13;21.57;;;4.30;99.90;;;;;;5007784;28;20042;-79
2022/01/10 11:59:42;;;;;;;41.10;22.93;;;4.30;99.90;;;;;;4991788;28;20038;-79
2022/01/10 12:02:20;;;;;;;39.60;22.37;;;4.40;99.90;;;;;;4988728;28;20045;-79
2022/01/10 12:04:51;;;;;;;49.97;29.57;;;4.40;99.90;;;;;;5004691;28;20063;-79
2022/01/10 12:07:20;;;;;;;61.45;34.72;;;4.50;99.90;;;;;;5020488;28;20085;-79
2022/01/10 12:09:46;;;;;;;45.73;27.33;;;4.40;99.90;;;;;;5011030;28;20128;-79
2022/01/10 12:12:14;;;;;;;37.80;22.97;;;4.60;99.90;;;;;;4997288;28;20100;-79
2022/01/10 12:14:42;;;;;;;40.53;24.67;;;4.60;99.90;;;;;;5015843;28;20473;-79
2022/01/10 12:17:08;;;;;;;39.47;22.77;;;4.60;99.90;;;;;;4996343;28;20053;-79
2022/01/10 12:19:34;;;;;;;31.77;21.33;;;4.70;99.90;;;;;;4983279;28;20037;-79
2022/01/10 12:22:01;;;;;;;41.27;24.03;;;4.70;99.90;;;;;;4996613;28;20037;-79
2022/01/10 12:24:26;;;;;;;32.17;20.30;;;4.70;99.90;;;;;;4982139;28;20035;-80
2022/01/10 12:26:52;;;;;;;37.33;22.27;;;4.80;99.90;;;;;;4988103;28;20093;-79
2022/01/10 12:29:18;;;;;;;38.73;21.13;;;4.80;99.90;;;;;;4983663;28;20041;-79
2022/01/10 12:31:46;;;;;;;38.67;22.67;;;4.90;99.90;;;;;;5008524;28;20045;-80
2022/01/10 12:34:14;;;;;;;40.20;22.57;;;4.90;99.90;;;;;;4996097;28;20030;-79
2022/01/10 12:36:42;;;;;;;38.87;22.17;;;4.90;99.90;;;;;;5007069;28;20100;-79
2022/01/10 12:39:17;;;;;;;38.30;21.40;;;4.90;99.90;;;;;;5002020;28;20100;-78
2022/01/10 12:41:44;;;;;;;40.23;21.37;;;5.00;99.90;;;;;;5012873;28;20119;-79
2022/01/10 12:44:10;;;;;;;36.47;20.93;;;5.00;99.90;;;;;;4994988;28;20046;-79
2022/01/10 12:46:36;;;;;;;35.50;21.47;;;5.00;99.90;;;;;;5012247;28;20099;-79
2022/01/10 12:49:05;;;;;;;43.27;23.10;;;5.10;99.90;;;;;;4996652;28;20042;-79
2022/01/10 12:51:39;;;;;;;38.53;22.67;;;5.10;99.90;;;;;;5009082;28;20352;-79
2022/01/10 12:54:22;;;;;;;41.63;22.70;;;5.20;99.90;;;;;;4989270;28;20120;-79